Time;durP1;ratioP1;P1;durP2;ratioP2;P2;SDS_P1;SDS_P2;PMS_P1;PMS_P2;Temp;Humidity;BMP_temperature;BMP_pressure;BME280_temperature;BME280_humidity;BME280_pressure;Samples;Min_cycle;Max_cycle;Signal;HPM_P1;HPM_P2
2023/03/04 05:27:43;;;;;;;4.22;0.70;;;12.20;63.20;;;;;;5091133;24;20060;-77
2023/03/04 05:30:10;;;;;;;6.13;0.52;;;12.20;63.30;;;;;;4791763;30;20471;-74
2023/03/04 05:32:35;;;;;;;4.65;0.63;;;12.20;63.40;;;;;;4791986;30;20440;-77
2023/03/04 05:35:05;;;;;;;4.90;0.60;;;12.20;63.70;;;;;;4791901;30;20066;-74
2023/03/04 05:37:31;;;;;;;4.20;1.08;;;12.30;64.10;;;;;;4791728;30;20070;-71
2023/03/04 05:39:56;;;;;;;5.43;0.65;;;12.40;63.70;;;;;;4791654;30;20035;-74
2023/03/04 05:42:22;;;;;;;7.20;0.98;;;12.50;63.60;;;;;;4776933;30;20055;-76
2023/03/04 05:44:48;;;;;;;10.70;1.25;;;12.70;63.60;;;;;;4791860;30;20164;-76
2023/03/04 05:47:13;;;;;;;8.95;0.70;;;12.90;63.80;;;;;;4791743;30;20059;-75
2023/03/04 05:49:40;;;;;;;8.25;0.90;;;12.90;63.90;;;;;;4760969;30;20082;-76
2023/03/04 05:52:06;;;;;;;14.23;1.33;;;13.10;64.10;;;;;;4791413;30;20121;-83
2023/03/04 05:54:32;;;;;;;8.75;1.33;;;13.30;64.10;;;;;;4775575;30;20213;-76
2023/03/04 05:56:57;;;;;;;12.45;1.40;;;13.30;64.40;;;;;;4775647;30;20067;-79
2023/03/04 05:59:23;;;;;;;16.77;1.50;;;13.50;64.40;;;;;;4791376;30;20138;-77
2023/03/04 06:01:49;;;;;;;8.98;0.90;;;13.60;64.50;;;;;;4775936;30;20069;-75
2023/03/04 06:04:15;;;;;;;24.90;2.60;;;13.70;64.30;;;;;;4791260;30;20382;-77
2023/03/04 06:06:40;;;;;;;26.83;2.35;;;13.70;64.10;;;;;;4760842;30;20059;-77
2023/03/04 06:09:06;;;;;;;19.55;1.92;;;13.80;64.40;;;;;;4791243;30;20046;-77
2023/03/04 06:11:32;;;;;;;16.77;1.30;;;13.90;64.50;;;;;;4760884;30;20051;-77
2023/03/04 06:13:58;;;;;;;11.02;1.55;;;14.00;64.60;;;;;;4775534;30;20055;-80
2023/03/04 06:16:23;;;;;;;11.73;1.27;;;14.10;64.60;;;;;;4790997;30;20051;-77
2023/03/04 06:18:49;;;;;;;12.73;1.80;;;14.20;64.50;;;;;;4791026;30;20051;-79
2023/03/04 06:21:15;;;;;;;17.35;1.63;;;14.30;64.60;;;;;;4791031;30;20051;-79
2023/03/04 06:23:40;;;;;;;15.23;1.50;;;14.40;64.50;;;;;;4791000;30;20429;-79
2023/03/04 06:26:08;;;;;;;16.92;1.90;;;14.50;64.60;;;;;;4773805;30;20051;-75
2023/03/04 06:28:34;;;;;;;11.77;1.75;;;14.50;64.50;;;;;;4790507;30;20138;-81
2023/03/04 06:31:00;;;;;;;15.88;1.85;;;14.60;64.50;;;;;;4790867;30;20456;-80
2023/03/04 06:33:26;;;;;;;10.40;1.50;;;14.60;64.10;;;;;;4775133;30;20051;-80
2023/03/04 06:35:56;;;;;;;14.80;2.00;;;14.70;63.70;;;;;;4791011;30;20355;-79
2023/03/04 06:38:22;;;;;;;13.77;1.20;;;14.70;63.80;;;;;;4790792;30;20123;-79
2023/03/04 06:40:48;;;;;;;15.57;1.65;;;14.70;64.20;;;;;;4789658;30;20043;-78
2023/03/04 06:43:13;;;;;;;8.38;1.52;;;14.80;64.60;;;;;;4774332;30;20409;-78
2023/03/04 06:45:39;;;;;;;14.95;2.38;;;14.90;64.60;;;;;;4790346;30;20482;-78
2023/03/04 06:48:05;;;;;;;14.85;1.73;;;14.90;64.80;;;;;;4791052;30;20387;-79
2023/03/04 06:50:31;;;;;;;14.32;1.50;;;14.90;64.80;;;;;;4775368;30;20440;-79
2023/03/04 06:52:56;;;;;;;8.20;1.20;;;15.00;64.70;;;;;;4773557;30;20130;-79
2023/03/04 06:55:31;;;;;;;12.88;1.92;;;15.10;64.90;;;;;;4774396;30;20052;-79
2023/03/04 06:58:02;;;;;;;23.73;1.88;;;15.10;64.80;;;;;;4774796;30;20122;-80
2023/03/04 07:00:31;;;;;;;20.48;2.55;;;15.10;64.80;;;;;;4774614;30;20050;-79
2023/03/04 07:03:13;;;;;;;32.15;3.55;;;15.20;64.80;;;;;;4774473;30;20051;-79
2023/03/04 07:05:42;;;;;;;30.45;3.15;;;15.20;64.80;;;;;;4759615;30;20063;-79
2023/03/04 07:08:20;;;;;;;20.33;3.30;;;15.30;64.90;;;;;;4774990;30;20043;-79
2023/03/04 07:11:01;;;;;;;27.10;2.42;;;15.30;64.90;;;;;;4773879;30;20108;-80
2023/03/04 07:13:31;;;;;;;18.23;2.40;;;15.30;64.90;;;;;;4790678;30;20079;-80
2023/03/04 07:15:59;;;;;;;8.88;1.52;;;15.40;64.90;;;;;;4774118;30;20467;-80
2023/03/04 07:18:32;;;;;;;20.75;2.35;;;15.40;64.80;;;;;;4759566;30;20080;-78
2023/03/04 07:20:58;;;;;;;13.70;1.77;;;15.50;64.70;;;;;;4774302;30;20451;-78
2023/03/04 07:23:24;;;;;;;15.77;2.00;;;15.40;64.40;;;;;;4759902;30;20055;-78
2023/03/04 07:25:50;;;;;;;12.38;1.17;;;15.40;64.40;;;;;;4774500;30;20138;-78
2023/03/04 07:28:17;;;;;;;12.25;2.10;;;15.40;64.50;;;;;;4759994;30;20059;-78
2023/03/04 07:30:43;;;;;;;12.10;1.50;;;15.40;64.50;;;;;;4773998;30;20105;-76
2023/03/04 07:33:08;;;;;;;18.38;1.92;;;15.50;64.50;;;;;;4788548;30;20050;-75
2023/03/04 07:35:34;;;;;;;17.60;1.45;;;15.50;64.30;;;;;;4789999;30;20051;-75
2023/03/04 07:38:00;;;;;;;20.63;2.42;;;15.50;64.30;;;;;;4788486;30;20043;-76
2023/03/04 07:40:26;;;;;;;22.73;2.20;;;15.60;64.20;;;;;;4789680;30;20055;-75
2023/03/04 07:42:53;;;;;;;19.20;3.35;;;15.60;64.30;;;;;;4789608;30;20093;-77
2023/03/04 07:45:19;;;;;;;19.60;2.20;;;15.60;64.30;;;;;;4759574;30;20090;-78
2023/03/04 07:47:45;;;;;;;30.40;3.15;;;15.70;64.40;;;;;;4774148;30;20051;-78
2023/03/04 07:50:12;;;;;;;23.48;2.63;;;15.70;64.20;;;;;;4773888;30;20055;-78
2023/03/04 07:52:43;;;;;;;21.65;2.88;;;15.70;64.10;;;;;;4789986;30;20051;-79
2023/03/04 07:55:10;;;;;;;33.28;3.45;;;15.80;64.00;;;;;;4774595;30;20120;-79
2023/03/04 07:57:40;;;;;;;28.00;2.78;;;15.80;64.00;;;;;;4774038;30;20520;-79
2023/03/04 08:00:07;;;;;;;21.88;2.55;;;15.80;64.10;;;;;;4788868;30;20456;-78
2023/03/04 08:02:33;;;;;;;25.92;3.30;;;15.80;64.10;;;;;;4772982;30;20051;-79
2023/03/04 08:04:59;;;;;;;22.45;2.40;;;15.80;64.10;;;;;;4773483;30;20058;-79
2023/03/04 08:07:24;;;;;;;18.88;2.40;;;15.60;63.80;;;;;;4789758;30;20039;-79
2023/03/04 08:09:50;;;;;;;24.85;2.35;;;15.60;64.00;;;;;;4790145;30;20466;-78
2023/03/04 08:12:16;;;;;;;22.85;2.22;;;15.60;64.00;;;;;;4774652;30;20055;-78
2023/03/04 08:14:41;;;;;;;23.73;2.63;;;15.60;64.00;;;;;;4789381;30;20408;-78
2023/03/04 08:17:08;;;;;;;17.85;2.78;;;15.60;64.00;;;;;;4773661;30;20053;-78
2023/03/04 08:19:34;;;;;;;19.23;3.25;;;15.70;64.00;;;;;;4773686;30;20141;-78
2023/03/04 08:22:01;;;;;;;29.73;2.80;;;15.30;63.70;;;;;;4788724;30;20048;-79
2023/03/04 08:24:27;;;;;;;28.92;2.53;;;15.40;64.10;;;;;;4759447;30;20095;-77
2023/03/04 08:26:53;;;;;;;14.68;2.20;;;15.50;64.00;;;;;;4773278;30;20094;-76
2023/03/04 08:29:22;;;;;;;15.27;1.83;;;15.60;63.50;;;;;;4773076;30;20051;-78
2023/03/04 08:31:49;;;;;;;14.90;2.28;;;15.60;62.80;;;;;;4774329;30;20116;-77
2023/03/04 08:34:15;;;;;;;22.65;2.70;;;15.60;61.50;;;;;;4755963;30;20089;-79
2023/03/04 08:36:41;;;;;;;18.15;3.05;;;15.60;60.70;;;;;;4771134;30;20078;-75
2023/03/04 08:39:32;;;;;;;25.00;3.35;;;15.70;59.50;;;;;;4783404;30;20056;-81
2023/03/04 08:42:02;;;;;;;21.88;2.38;;;15.70;58.00;;;;;;4763957;30;20383;-82
2023/03/04 08:44:38;;;;;;;16.15;2.13;;;15.70;58.40;;;;;;4779634;30;20056;-82
2023/03/04 08:47:19;;;;;;;13.25;1.77;;;15.80;58.60;;;;;;4766661;30;20051;-82
2023/03/04 08:50:07;;;;;;;14.57;3.30;;;15.90;58.90;;;;;;4787609;30;20413;-83
2023/03/04 08:52:39;;;;;;;13.73;1.88;;;15.90;59.10;;;;;;4786943;30;20051;-82
2023/03/04 08:55:11;;;;;;;13.50;2.15;;;15.90;59.40;;;;;;4763871;30;20090;-82
2023/03/04 08:57:42;;;;;;;13.02;1.95;;;15.90;59.50;;;;;;4774826;30;20048;-82
2023/03/04 09:00:14;;;;;;;16.73;1.90;;;15.90;59.80;;;;;;4762076;30;20434;-82
2023/03/04 09:03:02;;;;;;;12.05;2.00;;;15.90;59.90;;;;;;4790904;30;20115;-83
2023/03/04 09:05:32;;;;;;;17.48;2.42;;;15.90;60.10;;;;;;4775429;30;20066;-81
2023/03/04 09:08:07;;;;;;;10.25;1.70;;;15.90;60.10;;;;;;4775713;30;20442;-81
2023/03/04 09:10:33;;;;;;;6.35;1.20;;;16.00;60.20;;;;;;4776272;30;20051;-81
2023/03/04 09:13:00;;;;;;;13.82;1.52;;;16.00;60.40;;;;;;4790086;30;20375;-79
2023/03/04 09:15:26;;;;;;;11.90;1.70;;;16.00;60.60;;;;;;4792190;30;20055;-79
2023/03/04 09:17:52;;;;;;;9.23;1.70;;;15.90;60.50;;;;;;4776439;30;20051;-81
2023/03/04 09:20:18;;;;;;;7.63;1.17;;;15.90;60.50;;;;;;4760348;30;20043;-80
2023/03/04 09:22:44;;;;;;;8.65;1.52;;;16.00;60.50;;;;;;4791726;30;20054;-81
2023/03/04 09:25:14;;;;;;;12.38;2.05;;;15.90;60.50;;;;;;4790388;30;20054;-81
2023/03/04 09:27:40;;;;;;;12.70;1.88;;;16.00;60.60;;;;;;4792004;30;20058;-81
2023/03/04 09:30:07;;;;;;;12.63;1.65;;;15.90;60.70;;;;;;4792089;30;20063;-80
2023/03/04 09:32:33;;;;;;;13.80;2.28;;;15.90;60.90;;;;;;4791931;30;20122;-82
2023/03/04 09:34:58;;;;;;;15.38;2.20;;;15.90;61.10;;;;;;4790454;30;20139;-81
2023/03/04 09:37:24;;;;;;;12.05;2.28;;;15.90;61.00;;;;;;4791426;30;20370;-80
2023/03/04 09:39:50;;;;;;;19.00;2.72;;;15.90;60.90;;;;;;4791870;30;20043;-81
2023/03/04 09:42:32;;;;;;;21.90;2.97;;;15.90;61.00;;;;;;4775659;30;20048;-78
2023/03/04 09:44:58;;;;;;;25.65;3.40;;;15.90;61.10;;;;;;4790867;30;20058;-80
2023/03/04 09:47:25;;;;;;;22.30;2.97;;;15.90;61.20;;;;;;4775780;30;20055;-79
2023/03/04 09:50:01;;;;;;;22.92;3.58;;;15.90;61.20;;;;;;4790655;30;20047;-78
2023/03/04 09:52:51;;;;;;;20.83;2.58;;;15.90;61.30;;;;;;4776250;30;20886;-84
2023/03/04 09:55:24;;;;;;;36.53;4.07;;;15.90;61.10;;;;;;4790281;30;20467;-78
2023/03/04 09:58:03;;;;;;;19.48;2.90;;;16.00;61.20;;;;;;4790326;30;20091;-72
2023/03/04 10:00:37;;;;;;;18.40;3.28;;;15.90;61.10;;;;;;4789673;30;20042;-77
2023/03/04 10:03:05;;;;;;;;;;;15.90;61.10;;;;;;4758138;30;20062;-78
2023/03/04 10:05:35;;;;;;;18.75;2.42;;;15.90;61.10;;;;;;4773219;30;19933;-78
2023/03/04 10:08:42;;;;;;;17.20;2.30;;;15.90;61.20;;;;;;4757619;30;20055;-78
2023/03/04 10:11:29;;;;;;;18.13;2.78;;;15.90;61.10;;;;;;4771275;30;20128;-76
2023/03/04 10:14:24;;;;;;;24.48;3.00;;;16.00;61.00;;;;;;4791590;30;20468;-79
2023/03/04 10:17:12;;;;;;;16.85;2.00;;;16.00;61.10;;;;;;4791288;30;20066;-77
2023/03/04 10:19:50;;;;;;;14.35;2.70;;;16.00;61.30;;;;;;4757917;30;20059;-77
2023/03/04 10:22:47;;;;;;;12.63;1.73;;;16.00;61.30;;;;;;4771242;30;20345;-77
2023/03/04 10:25:29;;;;;;;15.40;2.33;;;16.00;60.90;;;;;;4791198;30;20150;-74
2023/03/04 10:28:03;;;;;;;8.55;1.27;;;16.00;60.60;;;;;;4760213;30;20387;-81
2023/03/04 10:30:59;;;;;;;9.40;1.50;;;16.00;60.50;;;;;;4774612;30;20353;-81
2023/03/04 10:33:29;;;;;;;7.00;1.52;;;16.00;59.00;;;;;;4774392;30;20445;-78
2023/03/04 10:36:08;;;;;;;5.90;1.17;;;16.00;58.60;;;;;;4791328;30;20594;-76
2023/03/04 10:38:37;;;;;;;10.70;1.65;;;16.00;58.50;;;;;;4790448;30;20486;-79
2023/03/04 10:41:21;;;;;;;10.98;1.35;;;16.00;59.00;;;;;;4790453;30;20051;-79
2023/03/04 10:44:06;;;;;;;;;;;16.10;58.50;;;;;;4773647;30;20062;-78
2023/03/04 10:46:31;;;;;;;8.52;1.60;;;16.00;57.70;;;;;;4788684;30;20424;-75
2023/03/04 10:48:58;;;;;;;6.95;1.10;;;16.00;58.30;;;;;;4774722;30;20048;-75
2023/03/04 10:51:27;;;;;;;13.40;2.40;;;16.00;58.40;;;;;;4790793;30;20127;-77
2023/03/04 10:54:23;;;;;;;10.73;1.95;;;16.00;58.60;;;;;;4790206;30;20047;-77
2023/03/04 10:57:04;;;;;;;9.82;1.38;;;16.10;58.60;;;;;;4789585;30;20439;-76
2023/03/04 10:59:36;;;;;;;12.00;1.40;;;16.00;58.90;;;;;;4789916;30;20188;-75
2023/03/04 11:02:35;;;;;;;11.23;1.35;;;16.10;59.20;;;;;;4789917;30;20051;-76
2023/03/04 11:05:19;;;;;;;10.82;1.45;;;16.00;59.30;;;;;;4774639;30;20067;-77
2023/03/04 11:07:52;;;;;;;10.13;1.40;;;16.10;59.70;;;;;;4774431;30;20074;-79
2023/03/04 11:10:21;;;;;;;9.53;1.67;;;16.10;59.90;;;;;;4789449;30;20456;-78
2023/03/04 11:12:50;;;;;;;10.23;1.42;;;16.10;60.00;;;;;;4789919;30;20124;-77
2023/03/04 11:15:26;;;;;;;12.27;1.30;;;16.10;60.10;;;;;;4773705;30;20121;-78
2023/03/04 11:17:56;;;;;;;8.25;1.70;;;16.10;60.20;;;;;;4776172;30;20059;-79
2023/03/04 11:20:28;;;;;;;13.00;1.40;;;16.10;60.40;;;;;;4788923;29;20051;-79
2023/03/04 11:22:56;;;;;;;11.30;1.52;;;16.10;60.50;;;;;;4788996;30;20063;-79
2023/03/04 11:25:39;;;;;;;11.50;1.60;;;16.00;59.80;;;;;;4789010;30;20047;-76
2023/03/04 11:28:35;;;;;;;5.13;1.27;;;16.00;59.50;;;;;;4788317;30;20071;-77
2023/03/04 11:31:07;;;;;;;10.25;1.60;;;16.00;59.80;;;;;;4772897;30;20060;-78
2023/03/04 11:33:45;;;;;;;10.45;1.75;;;15.90;60.00;;;;;;4758474;30;20079;-77
2023/03/04 11:36:11;;;;;;;21.08;1.98;;;15.90;60.30;;;;;;4773122;30;20051;-76
2023/03/04 11:38:46;;;;;;;13.32;1.90;;;15.90;60.50;;;;;;4756395;30;20063;-78
2023/03/04 11:41:38;;;;;;;8.07;1.42;;;16.00;60.70;;;;;;4770512;30;20091;-77
2023/03/04 11:44:08;;;;;;;9.70;1.42;;;16.00;60.80;;;;;;4771875;30;20593;-78
2023/03/04 11:47:00;;;;;;;12.38;1.55;;;15.90;60.80;;;;;;4774207;30;20085;-78
2023/03/04 11:49:43;;;;;;;10.32;1.65;;;16.00;61.00;;;;;;4789394;30;20051;-78
2023/03/04 11:52:37;;;;;;;12.48;1.55;;;15.90;61.20;;;;;;4789184;30;20051;-78
2023/03/04 11:55:21;;;;;;;9.25;1.63;;;16.00;61.30;;;;;;4789308;30;20055;-77
2023/03/04 11:58:05;;;;;;;17.77;1.88;;;16.00;61.30;;;;;;4777260;30;20427;-79
2023/03/04 12:00:44;;;;;;;9.75;1.48;;;16.00;61.00;;;;;;4789327;30;20439;-77
2023/03/04 12:03:37;;;;;;;8.75;1.42;;;15.90;59.20;;;;;;4790515;30;20051;-78
2023/03/04 12:06:25;;;;;;;6.68;1.35;;;15.90;57.90;;;;;;4788855;30;20070;-78
2023/03/04 12:09:12;;;;;;;7.50;1.23;;;15.80;57.90;;;;;;4787411;30;20109;-78
2023/03/04 12:12:10;;;;;;;8.32;1.38;;;15.80;57.80;;;;;;4789809;30;20344;-78
2023/03/04 12:14:54;;;;;;;6.78;1.40;;;15.80;58.10;;;;;;4776014;30;20379;-77
2023/03/04 12:17:38;;;;;;;7.50;1.67;;;15.70;58.30;;;;;;4769186;30;20079;-79
2023/03/04 12:20:07;;;;;;;10.50;1.48;;;15.70;58.70;;;;;;4773568;30;20059;-77
2023/03/04 12:22:36;;;;;;;6.55;1.13;;;15.60;58.90;;;;;;4757513;30;20059;-80
2023/03/04 12:25:04;;;;;;;6.25;1.50;;;15.60;59.10;;;;;;4789173;30;20035;-73
2023/03/04 12:27:36;;;;;;;6.05;1.58;;;15.60;59.20;;;;;;4788662;30;20039;-77
2023/03/04 12:30:15;;;;;;;9.00;1.63;;;15.50;59.10;;;;;;4758272;30;20043;-77
2023/03/04 12:33:02;;;;;;;9.48;1.73;;;15.50;58.90;;;;;;4792894;29;20055;-77
2023/03/04 12:35:40;;;;;;;9.65;2.35;;;15.50;59.10;;;;;;4792546;30;20335;-79
2023/03/04 12:38:25;;;;;;;36.22;2.80;;;15.50;59.40;;;;;;4776682;30;20051;-80
2023/03/04 12:41:16;;;;;;;8.38;2.20;;;15.50;59.70;;;;;;4775528;30;20082;-80
2023/03/04 12:44:11;;;;;;;17.02;3.25;;;15.50;58.80;;;;;;4782062;30;20047;-77
2023/03/04 12:47:07;;;;;;;16.40;2.78;;;15.40;58.10;;;;;;4771224;30;20378;-80
2023/03/04 12:49:36;;;;;;;13.93;2.35;;;15.40;58.10;;;;;;4792565;30;20114;-84
2023/03/04 12:52:16;;;;;;;10.45;2.45;;;15.30;58.40;;;;;;4791987;30;20106;-81
2023/03/04 12:55:01;;;;;;;14.55;2.38;;;15.30;58.30;;;;;;4792133;29;20047;-80
2023/03/04 12:57:30;;;;;;;8.73;1.77;;;15.30;58.20;;;;;;4775665;30;20059;-80
2023/03/04 13:00:11;;;;;;;14.88;2.10;;;15.30;58.10;;;;;;4792184;30;20071;-80
2023/03/04 13:03:09;;;;;;;9.07;2.20;;;15.30;57.60;;;;;;4774205;30;20047;-79
2023/03/04 13:06:10;;;;;;;13.82;2.00;;;15.20;57.50;;;;;;4775390;30;20475;-80
2023/03/04 13:08:44;;;;;;;20.33;3.33;;;15.20;56.90;;;;;;4758624;30;20055;-81
2023/03/04 13:11:25;;;;;;;25.52;4.57;;;15.20;57.50;;;;;;4775369;30;20504;-81
2023/03/04 13:14:17;;;;;;;13.52;2.65;;;15.20;57.10;;;;;;4774800;30;20475;-81
2023/03/04 13:16:48;;;;;;;16.05;2.30;;;15.10;57.40;;;;;;4791224;30;20074;-80
2023/03/04 13:19:44;;;;;;;18.58;3.13;;;15.10;57.60;;;;;;4775934;30;20090;-80
2023/03/04 13:22:38;;;;;;;19.10;3.05;;;15.10;57.70;;;;;;4775613;30;20483;-80
2023/03/04 13:25:34;;;;;;;19.77;2.78;;;15.00;58.10;;;;;;4776184;30;20523;-78
2023/03/04 13:28:12;;;;;;;17.05;3.20;;;15.00;58.80;;;;;;4788037;30;20058;-80
2023/03/04 13:30:39;;;;;;;24.00;3.75;;;14.90;59.50;;;;;;4791400;30;20379;-79
2023/03/04 13:33:14;;;;;;;21.60;1.95;;;14.90;60.10;;;;;;4790967;30;20155;-79
2023/03/04 13:35:45;;;;;;;21.17;3.22;;;14.90;60.20;;;;;;4791804;30;20055;-81
2023/03/04 13:38:23;;;;;;;15.80;2.80;;;14.90;60.20;;;;;;4789929;30;20047;-81
2023/03/04 13:41:19;;;;;;;15.02;3.15;;;14.90;60.40;;;;;;4790494;30;20047;-80
2023/03/04 13:43:53;;;;;;;20.33;2.85;;;14.90;60.50;;;;;;4777508;30;20056;-79
2023/03/04 13:46:18;;;;;;;12.27;2.60;;;14.80;60.60;;;;;;4787372;30;20059;-79
2023/03/04 13:48:50;;;;;;;8.57;1.83;;;14.80;60.70;;;;;;4775978;30;20463;-79
2023/03/04 13:51:25;;;;;;;13.75;2.47;;;14.80;60.90;;;;;;4761410;30;20066;-79
2023/03/04 13:54:01;;;;;;;14.32;2.00;;;14.80;61.10;;;;;;4791863;30;20126;-79
2023/03/04 13:56:34;;;;;;;13.45;2.10;;;14.70;61.30;;;;;;4773171;30;20083;-80
2023/03/04 13:59:21;;;;;;;19.60;3.40;;;14.70;61.30;;;;;;4791407;30;20163;-80
2023/03/04 14:01:46;;;;;;;15.52;1.95;;;14.70;61.60;;;;;;4783718;30;20067;-81
2023/03/04 14:04:12;;;;;;;11.63;2.25;;;14.70;61.80;;;;;;4783368;30;20380;-81
2023/03/04 14:06:48;;;;;;;14.52;2.42;;;14.70;61.90;;;;;;4784746;30;20043;-79
2023/03/04 14:09:21;;;;;;;10.88;2.33;;;14.70;61.90;;;;;;4767415;30;20112;-77
2023/03/04 14:11:49;;;;;;;17.15;2.08;;;14.70;62.00;;;;;;4781532;30;20124;-73
2023/03/04 14:14:20;;;;;;;9.77;1.77;;;14.70;61.70;;;;;;4753788;30;20089;-75
2023/03/04 14:16:50;;;;;;;11.85;1.67;;;14.70;61.40;;;;;;4790485;30;20058;-69
2023/03/04 14:19:26;;;;;;;8.57;2.10;;;14.70;59.30;;;;;;4782433;30;20066;-75
2023/03/04 14:21:52;;;;;;;4.50;1.30;;;14.80;58.50;;;;;;4773236;30;20426;-74
2023/03/04 14:24:21;;;;;;;10.63;2.67;;;14.90;58.60;;;;;;4785683;30;20050;-78
2023/03/04 14:26:48;;;;;;;8.88;1.55;;;15.00;58.90;;;;;;4791278;30;20062;-75
2023/03/04 14:29:29;;;;;;;11.73;1.90;;;15.10;59.00;;;;;;4787384;29;20433;-77
2023/03/04 14:32:01;;;;;;;10.75;1.58;;;15.10;59.10;;;;;;4775241;30;20091;-78
2023/03/04 14:34:36;;;;;;;9.52;2.40;;;15.10;59.20;;;;;;4790748;30;20051;-76
2023/03/04 14:37:17;;;;;;;8.57;1.90;;;15.20;59.70;;;;;;4782382;30;20058;-75
2023/03/04 14:39:43;;;;;;;14.40;1.88;;;15.20;59.90;;;;;;4790926;30;20208;-74
2023/03/04 14:42:13;;;;;;;11.38;2.97;;;15.30;60.20;;;;;;4791076;30;20125;-72
2023/03/04 14:44:45;;;;;;;11.13;2.00;;;15.30;60.60;;;;;;4775361;30;20149;-73
2023/03/04 14:47:34;;;;;;;17.30;3.10;;;15.30;60.80;;;;;;4790100;30;20051;-73
2023/03/04 14:50:00;;;;;;;12.77;1.92;;;15.30;60.70;;;;;;4775006;30;20062;-73
2023/03/04 14:52:52;;;;;;;10.68;2.20;;;15.30;60.50;;;;;;4790896;30;20130;-73
2023/03/04 14:55:27;;;;;;;13.05;1.90;;;15.30;60.30;;;;;;4774331;30;20066;-73
2023/03/04 14:58:05;;;;;;;9.85;1.65;;;15.40;60.40;;;;;;4790477;30;20106;-73
2023/03/04 15:00:35;;;;;;;12.07;1.83;;;15.30;60.40;;;;;;4790803;30;20067;-73
2023/03/04 15:03:20;;;;;;;7.93;2.13;;;15.30;60.40;;;;;;4774562;30;20486;-73
2023/03/04 15:05:46;;;;;;;13.38;1.90;;;15.30;60.40;;;;;;4778109;30;20182;-73
2023/03/04 15:08:49;;;;;;;10.82;1.80;;;15.20;60.40;;;;;;4789296;30;20549;-73
2023/03/04 15:11:25;;;;;;;6.82;1.50;;;15.20;60.40;;;;;;4785629;30;20398;-74
2023/03/04 15:13:53;;;;;;;11.00;2.30;;;15.20;61.10;;;;;;4790124;30;20138;-74
2023/03/04 15:16:22;;;;;;;6.55;1.15;;;15.20;60.60;;;;;;4789795;30;20438;-74
2023/03/04 15:18:56;;;;;;;6.18;1.58;;;15.10;60.60;;;;;;4790160;30;20059;-73
2023/03/04 15:21:39;;;;;;;11.50;2.17;;;15.10;60.60;;;;;;4789914;30;20126;-73
2023/03/04 15:24:07;;;;;;;6.10;1.73;;;15.00;60.60;;;;;;4774357;30;20478;-74
2023/03/04 15:26:37;;;;;;;9.82;1.38;;;15.10;60.70;;;;;;4789309;30;20131;-74
2023/03/04 15:29:14;;;;;;;10.65;2.60;;;15.00;60.70;;;;;;4789815;30;20491;-73
2023/03/04 15:31:42;;;;;;;9.82;1.55;;;15.00;60.80;;;;;;4789950;30;20394;-74
2023/03/04 15:34:13;;;;;;;9.15;2.53;;;15.00;60.80;;;;;;4790137;30;20067;-75
2023/03/04 15:36:39;;;;;;;7.50;1.88;;;14.90;60.80;;;;;;4789614;30;20093;-75
2023/03/04 15:39:06;;;;;;;13.38;2.70;;;15.00;61.00;;;;;;4790572;30;20363;-74
2023/03/04 15:41:31;;;;;;;11.60;1.90;;;15.10;61.10;;;;;;4789656;30;20079;-76
2023/03/04 15:43:57;;;;;;;10.25;2.08;;;15.10;61.10;;;;;;4789777;30;20097;-76
2023/03/04 15:46:23;;;;;;;12.95;1.95;;;15.30;61.10;;;;;;4788960;30;20089;-74
2023/03/04 15:48:49;;;;;;;10.10;1.60;;;15.40;61.10;;;;;;4789746;30;20075;-74
2023/03/04 15:51:19;;;;;;;17.13;1.98;;;15.50;61.10;;;;;;4774440;30;20059;-75
2023/03/04 15:53:48;;;;;;;7.47;1.75;;;15.50;61.10;;;;;;4789338;30;20333;-75
2023/03/04 15:56:21;;;;;;;9.90;1.67;;;15.50;61.10;;;;;;4789887;30;20051;-76
2023/03/04 15:58:53;;;;;;;11.13;1.70;;;15.60;61.20;;;;;;4789968;30;20052;-75
2023/03/04 16:01:19;;;;;;;6.45;1.35;;;15.60;61.20;;;;;;4789508;30;20528;-76
2023/03/04 16:03:45;;;;;;;11.52;2.45;;;15.60;61.10;;;;;;4789726;30;20126;-75
2023/03/04 16:06:17;;;;;;;7.07;1.60;;;15.60;61.00;;;;;;4790356;29;20039;-77
2023/03/04 16:08:43;;;;;;;8.32;1.00;;;15.60;61.10;;;;;;4793649;30;20051;-76
2023/03/04 16:11:21;;;;;;;7.70;1.10;;;15.60;61.00;;;;;;4793606;30;20094;-76
2023/03/04 16:13:47;;;;;;;6.90;1.30;;;15.70;61.10;;;;;;4793311;30;20051;-76
2023/03/04 16:16:14;;;;;;;8.50;1.83;;;15.80;61.10;;;;;;4792192;30;20062;-75
2023/03/04 16:18:41;;;;;;;7.72;2.20;;;15.80;60.90;;;;;;4793389;30;20059;-75
2023/03/04 16:21:13;;;;;;;8.38;1.80;;;15.90;60.50;;;;;;4777024;30;20543;-76
2023/03/04 16:23:41;;;;;;;12.68;1.80;;;16.00;60.00;;;;;;4786383;30;20452;-76
2023/03/04 16:26:19;;;;;;;10.02;2.10;;;16.10;59.70;;;;;;4793401;30;20051;-76
2023/03/04 16:28:44;;;;;;;8.45;1.35;;;16.10;59.70;;;;;;4792955;30;20063;-77
2023/03/04 16:31:12;;;;;;;8.80;1.17;;;16.10;59.80;;;;;;4792830;30;20066;-78
2023/03/04 16:33:38;;;;;;;16.40;2.00;;;16.20;59.90;;;;;;4792066;30;20126;-78
2023/03/04 16:36:10;;;;;;;12.20;2.00;;;16.20;59.60;;;;;;4792351;30;20130;-79
2023/03/04 16:38:38;;;;;;;10.30;2.13;;;16.30;59.90;;;;;;4776986;30;20055;-76
2023/03/04 16:41:12;;;;;;;16.15;2.30;;;16.40;59.90;;;;;;4793539;30;20047;-79
2023/03/04 16:43:39;;;;;;;18.73;2.63;;;16.30;60.20;;;;;;4792757;30;20527;-74
2023/03/04 16:46:05;;;;;;;21.52;2.88;;;16.40;60.40;;;;;;4776380;30;20059;-78
2023/03/04 16:48:31;;;;;;;26.90;2.50;;;16.40;60.70;;;;;;4792389;30;20062;-76
2023/03/04 16:51:00;;;;;;;18.35;3.08;;;16.40;61.20;;;;;;4777420;30;20110;-77
2023/03/04 16:53:32;;;;;;;17.90;2.50;;;16.40;61.50;;;;;;4793036;30;20167;-77
2023/03/04 16:56:03;;;;;;;21.05;3.63;;;16.40;62.00;;;;;;4791647;30;20047;-77
2023/03/04 16:58:29;;;;;;;23.67;2.65;;;16.30;62.20;;;;;;4792123;30;20055;-75
2023/03/04 17:00:54;;;;;;;22.63;3.40;;;16.30;62.30;;;;;;4792815;30;20138;-76
2023/03/04 17:03:20;;;;;;;22.50;3.08;;;16.30;62.20;;;;;;4792402;30;20082;-76
2023/03/04 17:05:46;;;;;;;14.65;2.75;;;16.30;62.00;;;;;;4792221;30;20463;-76
2023/03/04 17:08:12;;;;;;;15.02;3.03;;;16.20;61.00;;;;;;4792842;30;20063;-77
2023/03/04 17:10:38;;;;;;;9.23;2.45;;;16.20;61.00;;;;;;4792512;30;20142;-75
2023/03/04 17:13:05;;;;;;;13.13;2.08;;;16.10;58.80;;;;;;4761470;30;20450;-75
2023/03/04 17:15:31;;;;;;;14.85;2.22;;;16.00;57.40;;;;;;4792517;30;20047;-76
2023/03/04 17:17:56;;;;;;;20.98;2.90;;;15.90;57.60;;;;;;4790964;29;20501;-77
2023/03/04 17:20:22;;;;;;;19.88;2.85;;;16.00;58.00;;;;;;4792578;30;20262;-75
2023/03/04 17:22:48;;;;;;;25.45;3.35;;;16.00;58.50;;;;;;4776543;30;20065;-76
2023/03/04 17:25:14;;;;;;;24.95;3.60;;;16.10;59.00;;;;;;4776512;30;20142;-77
2023/03/04 17:27:40;;;;;;;21.25;4.10;;;16.10;59.40;;;;;;4791667;29;20051;-74
2023/03/04 17:30:08;;;;;;;29.98;3.55;;;16.10;59.70;;;;;;4791979;30;20138;-77
2023/03/04 17:32:33;;;;;;;25.40;3.88;;;16.10;60.10;;;;;;4791655;30;20490;-76
2023/03/04 17:34:59;;;;;;;29.33;3.70;;;16.10;60.30;;;;;;4791996;30;20047;-74
2023/03/04 17:37:26;;;;;;;30.65;4.10;;;16.20;60.40;;;;;;4791719;30;20354;-75
2023/03/04 17:39:51;;;;;;;18.85;3.53;;;16.20;60.50;;;;;;4775708;30;20066;-73
2023/03/04 17:42:17;;;;;;;18.27;2.95;;;16.20;60.60;;;;;;4792288;30;20138;-75
2023/03/04 17:44:44;;;;;;;13.48;2.40;;;16.00;61.30;;;;;;4792063;30;20421;-76
2023/03/04 17:47:10;;;;;;;16.20;3.15;;;16.00;61.50;;;;;;4791519;30;20054;-76
2023/03/04 17:49:37;;;;;;;15.95;3.08;;;16.00;61.50;;;;;;4791990;30;20113;-75
2023/03/04 17:52:03;;;;;;;16.08;2.45;;;16.00;62.10;;;;;;4792363;30;20059;-77
2023/03/04 17:54:29;;;;;;;24.88;3.25;;;16.00;61.50;;;;;;4775665;30;20078;-74
2023/03/04 17:56:55;;;;;;;22.20;2.60;;;16.00;61.60;;;;;;4791847;30;20059;-74
2023/03/04 17:59:21;;;;;;;18.30;3.30;;;16.00;61.60;;;;;;4791791;30;20055;-74
2023/03/04 18:01:48;;;;;;;9.38;2.22;;;16.00;61.80;;;;;;4791026;30;20130;-76
2023/03/04 18:04:15;;;;;;;16.05;2.70;;;15.90;62.00;;;;;;4791515;30;20074;-76
2023/03/04 18:06:41;;;;;;;18.80;2.20;;;15.90;62.30;;;;;;4791500;30;20051;-77
2023/03/04 18:09:07;;;;;;;16.70;2.47;;;15.90;62.40;;;;;;4791791;30;20055;-74
2023/03/04 18:11:35;;;;;;;20.00;2.38;;;15.90;62.50;;;;;;4791610;30;20047;-75
2023/03/04 18:14:01;;;;;;;18.00;2.17;;;15.80;62.50;;;;;;4791318;30;20142;-75
2023/03/04 18:16:27;;;;;;;17.90;1.98;;;15.80;62.50;;;;;;4791204;30;20408;-75
2023/03/04 19:51:34;;;;;;;8.95;1.63;;;14.90;62.30;;;;;;4765988;30;20068;-78
2023/03/04 19:54:01;;;;;;;7.75;1.05;;;14.80;62.60;;;;;;4772423;30;20059;-75
2023/03/04 19:56:27;;;;;;;7.43;1.25;;;14.80;62.50;;;;;;4772513;30;20083;-74
2023/03/04 19:58:54;;;;;;;5.80;0.90;;;14.80;62.50;;;;;;4771594;30;20052;-72
2023/03/04 20:01:35;;;;;;;8.45;0.80;;;14.80;62.70;;;;;;4771805;30;20112;-71
2023/03/04 20:04:14;;;;;;;4.05;0.82;;;14.80;62.80;;;;;;4756739;30;20135;-73
2023/03/04 20:06:42;;;;;;;6.82;1.15;;;14.80;63.10;;;;;;4789617;30;20051;-74